Shipman, Virginia
Current Conditions -  °F | °C
As of 12:55 AM on Sunday 21 Dec 2014 (Local Time) from KW13 Reporting Station
Overcast Overcast  
Wind Chill: 32°   Ceiling: 6000
Heat Index: 32°   Visibility: 10mi
Dew Point: 26°   Wind: 0mph
Humidity: 78%   Direction: NA
Pressure: 30.22"   Gusts: NA
Location:  37.72°N, 78.84°W
Report Text: KW13 210555Z AUTO 00000KT 10SM OVC060 00/M03 A3022 RMK AO1 T10011035 10007 21001
Loading
Personal Weather Stations






























Interactive Weather Map New forecast layout! Learn more

10-Day Weather Forecast

Advertisements
Track Severe Weather on mobile